aviador You're here:

UTAM Decoded Metar

MARY in RUSSIA
Report Time2017-10-22 17:00:00
UTC Time2017-10-22 17:20:31
Flight Rules mvfr MVFR
Wind070° at 02 kt
W.Decomp.*RWY 36: 0.8 kt HW 1.8 kt RCW
W.Rank070° ranks 15
Current wind is below 070° avg. (6.2)
Visibility6000 m
Phenomena:N/A
Clouds:N/A
Expected CloudBase > 2,800 ft AGL from Temp-Dew spread
CeilingNone
Temp14°C (ISA 0)
Dew Point07°C (63% RH)
AAT12.6°C
QNH1014 hPa
Density Alt886 ft
Elevation728 ft
Report Wrong Elevation
Raw Report
METAR UTAM 221700Z 07002KT 6000 SKC 14/07 Q1014 NOSIG=

Extra information for UTAM:More info

Metar Taf Metar & Taf Last 4 Metars F.Rules Stats Wind Profile Meteogram Temp Stats Airport Information Weather charts Add Link Nearby VenuesMetar ALERT Operation Metar Decoded Social comments